Lumberton, New Jersey
Current Conditions -  °F | °C
As of 4:54 AM on Tuesday 27 Jan 2015 (Local Time) from KVAY Reporting Station
Light Snow Light Snow  
Wind Chill: 14°   Ceiling: 2300
Heat Index: 24°   Visibility: 1.5mi
Dew Point: 19°   Wind: 10mph
Humidity: 81%   Direction: 340°NNW
Pressure: 29.69"   Gusts: NA
Location:  39.97°N, 74.8°W
Report Text: KVAY 270954Z AUTO 34009KT 1 1/2SM -SN SCT015 OVC023 M04/M07 A2969 RMK AO2 SLP054 P0000 T10441072
Loading
Personal Weather Stations






























Interactive Weather Map New forecast layout! Learn more

10-Day Weather Forecast

Advertisements
Track Severe Weather on mobile